Time;durP1;ratioP1;P1;durP2;ratioP2;P2;SDS_P1;SDS_P2;PMS_P1;PMS_P2;Temp;Humidity;BMP_temperature;BMP_pressure;BME280_temperature;BME280_humidity;BME280_pressure;Samples;Min_cycle;Max_cycle;Signal;HPM_P1;HPM_P2
2022/04/13 00:01:03;;;;;;;3.60;3.40;;;15.90;41.10;;;;;;20742;6749;117479;-75
2022/04/13 00:03:41;;;;;;;3.80;3.50;;;15.90;41.00;;;;;;20632;6752;299439;-75
2022/04/13 00:06:15;;;;;;;3.83;3.60;;;16.10;40.80;;;;;;20630;6752;277426;-75
2022/04/13 00:08:50;;;;;;;4.35;4.05;;;16.40;39.70;;;;;;20615;6749;306126;-75
2022/04/13 00:11:25;;;;;;;3.93;3.63;;;16.70;39.50;;;;;;20797;6719;117751;-75
2022/04/13 00:14:02;;;;;;;3.13;2.93;;;16.60;39.60;;;;;;20834;6756;117069;-75
2022/04/13 00:16:39;;;;;;;3.50;3.20;;;16.30;40.00;;;;;;20854;6741;118195;-75
2022/04/13 00:19:13;;;;;;;4.05;3.67;;;16.00;40.30;;;;;;20666;6741;335589;-75
2022/04/13 00:21:49;;;;;;;3.60;3.27;;;16.20;40.90;;;;;;20690;6742;118600;-75
2022/04/13 00:24:25;;;;;;;3.83;3.58;;;16.40;40.90;;;;;;20709;6725;309583;-75
2022/04/13 00:27:02;;;;;;;5.33;3.43;;;16.30;40.80;;;;;;20928;6726;117630;-75
2022/04/13 00:29:37;;;;;;;4.00;3.70;;;16.30;40.90;;;;;;20874;6740;117227;-75
2022/04/13 00:32:13;;;;;;;3.60;3.40;;;16.00;41.10;;;;;;20670;6739;333197;-75
2022/04/13 00:34:52;;;;;;;3.13;2.93;;;16.10;41.20;;;;;;20912;6724;117199;-75
2022/04/13 00:37:24;;;;;;;5.20;3.20;;;16.00;41.00;;;;;;20882;6739;118246;-75
2022/04/13 00:40:00;;;;;;;3.70;3.50;;;15.80;41.30;;;;;;20850;6739;116939;-75
2022/04/13 00:42:35;;;;;;;3.60;3.40;;;15.70;41.90;;;;;;20957;6726;121657;-75
2022/04/13 00:45:11;;;;;;;3.85;3.55;;;15.50;42.20;;;;;;20657;6744;276778;-75
2022/04/13 00:47:46;;;;;;;4.20;3.80;;;15.70;42.30;;;;;;20678;6739;305572;-75
2022/04/13 00:50:23;;;;;;;3.63;3.33;;;16.10;41.60;;;;;;20919;6710;118103;-75
2022/04/13 00:52:58;;;;;;;3.47;3.27;;;16.10;41.50;;;;;;20960;6710;116565;-75
2022/04/13 00:55:33;;;;;;;5.00;2.80;;;15.80;41.60;;;;;;20972;6711;118225;-75
2022/04/13 00:58:12;;;;;;;3.62;3.42;;;15.60;42.00;;;;;;20705;6729;335290;-75
2022/04/13 01:00:48;;;;;;;4.07;3.63;;;15.80;42.60;;;;;;20880;6711;118384;-75
2022/04/13 01:03:20;;;;;;;3.90;3.60;;;15.70;42.40;;;;;;20973;6711;116936;-75
2022/04/13 01:05:55;;;;;;;3.20;3.00;;;15.50;42.50;;;;;;20994;6711;116872;-75
2022/04/13 01:08:31;;;;;;;3.60;3.40;;;15.40;42.90;;;;;;20908;6725;120056;-75
2022/04/13 01:11:06;;;;;;;3.50;3.30;;;15.20;43.20;;;;;;20781;6740;117842;-75
2022/04/13 01:13:42;;;;;;;3.40;3.20;;;15.10;43.30;;;;;;20929;6725;118237;-75
2022/04/13 01:16:18;;;;;;;3.83;3.50;;;15.30;43.60;;;;;;20668;6741;276192;-75
2022/04/13 01:18:54;;;;;;;3.90;3.60;;;15.20;43.50;;;;;;20653;6740;305456;-75
2022/04/13 01:21:42;;;;;;;7.13;3.67;;;15.60;43.10;;;;;;20786;6726;117760;-75
2022/04/13 01:24:17;;;;;;;3.40;3.20;;;15.60;42.70;;;;;;20952;6726;116768;-75
2022/04/13 01:26:54;;;;;;;3.40;3.20;;;15.30;42.90;;;;;;20933;6726;118604;-75
2022/04/13 01:29:29;;;;;;;5.30;3.53;;;15.10;43.90;;;;;;20948;6726;120978;-75
2022/04/13 01:32:05;;;;;;;3.50;3.30;;;14.90;43.50;;;;;;20685;6803;124830;-75
2022/04/13 01:34:50;;;;;;;3.83;3.63;;;14.80;43.80;;;;;;20890;6734;122551;-75
2022/04/13 01:37:26;;;;;;;3.57;3.33;;;14.60;43.80;;;;;;20932;6726;117151;-75
2022/04/13 01:40:02;;;;;;;4.30;3.90;;;14.50;44.00;;;;;;20637;6740;310296;-75
2022/04/13 01:42:38;;;;;;;3.40;3.03;;;14.80;44.70;;;;;;20863;6739;116987;-75
2022/04/13 01:45:19;;;;;;;3.90;3.30;;;14.80;44.30;;;;;;20842;6752;116835;-74
2022/04/13 01:47:49;;;;;;;3.95;3.65;;;14.70;44.40;;;;;;20632;6742;310628;-74
2022/04/13 01:50:25;;;;;;;4.37;3.97;;;15.30;43.90;;;;;;20570;6764;308642;-74
2022/04/13 01:53:01;;;;;;;3.67;3.37;;;15.30;43.90;;;;;;20888;6739;117443;-74
2022/04/13 01:55:37;;;;;;;3.87;3.57;;;15.20;43.70;;;;;;20944;6729;117417;-74
2022/04/13 01:58:13;;;;;;;3.20;3.00;;;14.80;43.80;;;;;;20962;6714;116668;-74
2022/04/13 02:00:54;;;;;;;3.83;3.53;;;14.60;44.10;;;;;;20854;6717;117448;-74
2022/04/13 02:03:28;;;;;;;3.58;3.28;;;14.40;44.30;;;;;;20588;6768;308621;-75
2022/04/13 02:06:06;;;;;;;3.40;3.20;;;14.60;44.20;;;;;;20897;6735;117161;-75
2022/04/13 02:08:42;;;;;;;3.87;3.60;;;14.60;44.00;;;;;;20648;6739;335410;-75
2022/04/13 02:11:17;;;;;;;3.87;3.57;;;14.80;44.00;;;;;;20706;6756;117687;-75
2022/04/13 02:13:53;;;;;;;3.70;3.50;;;14.80;43.80;;;;;;20669;6734;306011;-75
2022/04/13 02:16:29;;;;;;;3.33;3.13;;;14.90;43.80;;;;;;20833;6746;117956;-77
2022/04/13 02:19:06;;;;;;;2.90;2.70;;;14.80;43.70;;;;;;20862;6744;118193;-76
2022/04/13 02:21:40;;;;;;;3.72;3.53;;;14.60;44.10;;;;;;20632;6716;310301;-75
2022/04/13 02:24:16;;;;;;;3.80;3.50;;;14.80;44.70;;;;;;20667;6741;305970;-75
2022/04/13 02:26:51;;;;;;;3.67;3.47;;;15.20;44.40;;;;;;20706;6723;277857;-75
2022/04/13 02:29:27;;;;;;;3.63;3.33;;;15.50;43.90;;;;;;20941;6723;117479;-74
2022/04/13 02:32:04;;;;;;;3.37;3.13;;;15.40;43.90;;;;;;20715;6794;117684;-75
2022/04/13 02:34:40;;;;;;;3.73;3.50;;;14.70;44.60;;;;;;20930;6723;118643;-75
2022/04/13 02:37:16;;;;;;;6.43;3.30;;;14.70;44.40;;;;;;20965;6712;116902;-74
2022/04/13 02:39:51;;;;;;;3.13;2.87;;;14.50;44.80;;;;;;20914;6723;118017;-78
2022/04/13 02:42:34;;;;;;;3.13;2.83;;;14.20;45.30;;;;;;20995;6708;117515;-77
2022/04/13 02:45:10;;;;;;;3.50;3.20;;;14.20;45.90;;;;;;20653;6745;281799;-74
2022/04/13 02:47:45;;;;;;;3.10;2.90;;;14.40;46.20;;;;;;20862;6743;120820;-74
2022/04/13 02:50:21;;;;;;;3.90;3.50;;;14.40;45.10;;;;;;20908;6722;116751;-74
2022/04/13 02:52:57;;;;;;;4.23;3.50;;;14.20;45.30;;;;;;20886;6725;116790;-74
2022/04/13 02:55:32;;;;;;;3.70;3.50;;;14.00;45.50;;;;;;20696;6726;305436;-74
2022/04/13 02:58:08;;;;;;;4.17;3.87;;;14.20;46.50;;;;;;20852;6744;118183;-74
2022/04/13 03:00:47;;;;;;;3.83;3.62;;;14.20;46.10;;;;;;20541;6745;313268;-75
2022/04/13 03:03:21;;;;;;;3.50;3.30;;;14.40;46.60;;;;;;20939;6722;118209;-74
2022/04/13 03:05:56;;;;;;;5.20;3.40;;;14.30;46.30;;;;;;20909;6721;117500;-74
2022/04/13 03:08:32;;;;;;;3.90;2.90;;;14.10;46.50;;;;;;20904;6744;120793;-74
2022/04/13 03:11:08;;;;;;;3.97;3.67;;;13.90;46.70;;;;;;20591;6716;288406;-74
2022/04/13 03:13:43;;;;;;;4.03;3.63;;;14.10;47.30;;;;;;20701;6739;275342;-74
2022/04/13 03:16:18;;;;;;;3.83;2.97;;;14.40;46.80;;;;;;20939;6734;118473;-74
2022/04/13 03:18:55;;;;;;;5.63;4.00;;;14.00;46.80;;;;;;20956;6712;116756;-74
2022/04/13 03:21:34;;;;;;;4.63;3.77;;;14.00;46.80;;;;;;20823;6712;118226;-74
2022/04/13 03:24:06;;;;;;;28.70;21.07;;;13.80;47.20;;;;;;20955;6717;117178;-74
2022/04/13 03:26:42;;;;;;;7.12;6.45;;;13.50;47.90;;;;;;20693;6732;336258;-75
2022/04/13 03:29:18;;;;;;;5.17;4.63;;;13.80;48.50;;;;;;21005;6706;116963;-74
2022/04/13 03:31:57;;;;;;;5.83;4.20;;;13.80;48.10;;;;;;20850;6689;119992;-75
2022/04/13 03:34:30;;;;;;;4.80;4.40;;;13.60;48.90;;;;;;20659;6724;311589;-73
2022/04/13 03:37:06;;;;;;;5.20;4.80;;;13.80;48.80;;;;;;20732;6719;306277;-76
2022/04/13 03:39:42;;;;;;;4.20;3.90;;;14.20;48.20;;;;;;20963;6707;118537;-75
2022/04/13 03:42:18;;;;;;;4.40;4.10;;;14.10;47.90;;;;;;20996;6708;117176;-75
2022/04/13 03:44:53;;;;;;;5.10;4.70;;;13.90;48.20;;;;;;20966;6718;119004;-75
2022/04/13 03:47:29;;;;;;;5.15;4.65;;;13.60;48.40;;;;;;20744;6718;305721;-75
2022/04/13 03:50:06;;;;;;;4.73;4.43;;;13.90;49.50;;;;;;20976;6706;116805;-75
2022/04/13 03:52:41;;;;;;;5.10;4.70;;;13.90;49.10;;;;;;20700;6711;292664;-74
2022/04/13 03:55:19;;;;;;;4.63;4.33;;;14.10;49.30;;;;;;21016;6698;121568;-74
2022/04/13 03:57:52;;;;;;;4.30;4.00;;;14.00;48.90;;;;;;20974;6713;117695;-74
2022/04/13 04:00:28;;;;;;;4.73;4.43;;;13.80;49.00;;;;;;20905;6698;120757;-74
2022/04/13 04:03:04;;;;;;;4.20;3.92;;;13.60;49.10;;;;;;20743;6713;276564;-73
2022/04/13 04:05:39;;;;;;;4.40;4.10;;;13.80;48.90;;;;;;20661;6728;306567;-74
2022/04/13 04:08:16;;;;;;;4.40;4.10;;;14.50;47.60;;;;;;20750;6731;280911;-74
2022/04/13 04:10:51;;;;;;;4.55;4.25;;;14.50;47.60;;;;;;20688;6706;307476;-74
2022/04/13 04:13:27;;;;;;;4.17;3.80;;;14.70;47.10;;;;;;21002;6712;117205;-74
2022/04/13 04:16:02;;;;;;;4.70;4.37;;;14.50;47.80;;;;;;20744;6717;308908;-74
2022/04/13 04:18:38;;;;;;;7.17;4.30;;;14.50;47.70;;;;;;20998;6697;116729;-75
2022/04/13 04:21:14;;;;;;;5.50;5.00;;;14.30;47.70;;;;;;20884;6712;123677;-74
2022/04/13 04:23:49;;;;;;;5.07;4.68;;;14.00;48.20;;;;;;20759;6712;305510;-74
2022/04/13 04:26:25;;;;;;;5.23;4.83;;;14.10;49.00;;;;;;20740;6717;305570;-74
2022/04/13 04:29:00;;;;;;;5.03;4.63;;;14.40;48.50;;;;;;20964;6712;118238;-75
2022/04/13 04:31:59;;;;;;;4.30;4.00;;;14.30;48.40;;;;;;20817;6712;117208;-74
2022/04/13 04:34:33;;;;;;;5.23;4.90;;;14.00;48.60;;;;;;20705;6721;334604;-74
2022/04/13 04:37:07;;;;;;;5.73;4.80;;;14.10;48.80;;;;;;20881;6743;117506;-77
2022/04/13 04:39:42;;;;;;;5.00;4.70;;;14.00;48.50;;;;;;20845;6746;123020;-76
2022/04/13 04:42:19;;;;;;;5.72;5.20;;;13.80;48.80;;;;;;20738;6729;275420;-74
2022/04/13 04:44:56;;;;;;;5.23;4.70;;;13.90;48.90;;;;;;20950;6724;119017;-75
2022/04/13 04:47:30;;;;;;;3.90;3.70;;;13.80;48.70;;;;;;21008;6710;117256;-75
2022/04/13 04:50:06;;;;;;;5.10;4.70;;;13.60;49.00;;;;;;20978;6710;117692;-75
2022/04/13 04:52:44;;;;;;;5.05;4.75;;;13.40;49.20;;;;;;20726;6726;275388;-75
2022/04/13 04:55:21;;;;;;;4.70;4.30;;;13.60;49.10;;;;;;20936;6726;116895;-76
2022/04/13 04:58:02;;;;;;;4.53;4.23;;;13.80;48.10;;;;;;20744;6720;306003;-73
2022/04/13 05:00:36;;;;;;;4.27;3.90;;;13.80;48.00;;;;;;20808;6738;117720;-74
2022/04/13 05:03:20;;;;;;;;;;;;;;;;;;;;;
2022/04/13 05:05:47;;;;;;;4.28;3.97;;;13.70;48.30;;;;;;20791;6708;337284;-75
2022/04/13 05:08:22;;;;;;;4.45;4.05;;;13.80;47.90;;;;;;20707;6723;305577;-76
2022/04/13 05:10:58;;;;;;;4.60;4.20;;;14.20;47.30;;;;;;20830;6730;114904;-74
2022/04/13 05:13:35;;;;;;;4.62;4.28;;;14.10;47.20;;;;;;20835;6687;274541;-74
2022/04/13 05:16:11;;;;;;;4.50;4.20;;;14.20;47.80;;;;;;21049;6687;116820;-74
2022/04/13 05:18:47;;;;;;;4.40;4.10;;;14.10;47.40;;;;;;20999;6695;123517;-74
2022/04/13 05:21:22;;;;;;;4.30;3.90;;;13.90;47.70;;;;;;20864;6702;118045;-75
2022/04/13 05:23:58;;;;;;;4.40;4.10;;;13.80;48.00;;;;;;20764;6707;304365;-75
2022/04/13 05:26:33;;;;;;;4.70;4.30;;;14.00;48.00;;;;;;20798;6692;304789;-75
2022/04/13 05:29:09;;;;;;;4.43;4.00;;;14.40;47.60;;;;;;21041;6692;118345;-75
2022/04/13 05:31:45;;;;;;;4.22;3.90;;;14.50;47.30;;;;;;20658;6692;297345;-75
2022/04/13 05:34:21;;;;;;;4.20;3.90;;;14.50;47.30;;;;;;20846;6691;308876;-75
2022/04/13 05:36:56;;;;;;;4.13;3.83;;;14.80;46.90;;;;;;21017;6691;117139;-75
2022/04/13 05:39:32;;;;;;;4.50;4.20;;;14.80;47.00;;;;;;20817;6691;297601;-74
2022/04/13 05:42:08;;;;;;;4.60;4.20;;;14.90;47.20;;;;;;20887;6747;118144;-74
2022/04/13 05:44:44;;;;;;;4.53;4.20;;;14.60;47.70;;;;;;20913;6706;118990;-73
2022/04/13 05:47:19;;;;;;;4.60;4.30;;;14.60;47.70;;;;;;20933;6717;118246;-73
2022/04/13 05:49:55;;;;;;;4.60;4.30;;;14.40;48.10;;;;;;20896;6730;120786;-74
2022/04/13 05:52:31;;;;;;;4.90;4.40;;;14.30;48.40;;;;;;20920;6715;117997;-74
2022/04/13 05:55:06;;;;;;;4.65;4.20;;;14.30;48.60;;;;;;20650;6745;306906;-73
2022/04/13 05:57:42;;;;;;;4.40;4.00;;;14.70;49.10;;;;;;20947;6717;117437;-74
2022/04/13 06:00:18;;;;;;;5.07;3.97;;;14.80;48.60;;;;;;20853;6724;117978;-73
2022/04/13 06:02:54;;;;;;;5.47;3.80;;;14.70;48.40;;;;;;20914;6722;124353;-73
2022/04/13 06:05:30;;;;;;;4.47;4.20;;;14.70;48.40;;;;;;20720;6721;283412;-73
2022/04/13 06:08:06;;;;;;;4.40;3.53;;;14.90;47.80;;;;;;20874;6738;117427;-74
2022/04/13 06:10:42;;;;;;;4.00;3.60;;;14.80;47.40;;;;;;20863;6702;121571;-74
2022/04/13 06:13:18;;;;;;;5.43;3.83;;;14.80;47.30;;;;;;20743;6720;304352;-74
2022/04/13 06:15:53;;;;;;;5.33;3.90;;;15.10;46.80;;;;;;20957;6710;116948;-74
2022/04/13 06:18:29;;;;;;;4.22;3.83;;;15.10;46.80;;;;;;20667;6721;313223;-74
2022/04/13 06:21:05;;;;;;;5.13;4.00;;;15.30;46.30;;;;;;20809;6722;117372;-73
2022/04/13 06:23:40;;;;;;;4.20;3.90;;;15.30;46.40;;;;;;20749;6725;276045;-74
2022/04/13 06:26:16;;;;;;;4.80;3.90;;;15.50;46.30;;;;;;20704;6726;277543;-74
2022/04/13 06:28:55;;;;;;;4.37;4.00;;;15.90;46.10;;;;;;20702;6722;275446;-77
2022/04/13 06:31:30;;;;;;;3.90;3.53;;;16.30;45.60;;;;;;20819;6732;117387;-75
2022/04/13 06:34:06;;;;;;;3.90;3.60;;;16.30;45.60;;;;;;20663;6758;309853;-76
2022/04/13 06:36:41;;;;;;;5.60;3.83;;;16.40;45.40;;;;;;20645;6735;305791;-74
2022/04/13 06:39:17;;;;;;;5.60;3.90;;;16.70;44.90;;;;;;20955;6731;117216;-76
2022/04/13 06:41:52;;;;;;;4.10;3.83;;;16.70;45.10;;;;;;20756;6726;118449;-76
2022/04/13 06:44:29;;;;;;;4.27;3.97;;;16.60;45.40;;;;;;20738;6723;279817;-74
2022/04/13 06:47:04;;;;;;;4.27;3.90;;;16.60;45.30;;;;;;20771;6717;305411;-74
2022/04/13 06:49:40;;;;;;;4.27;4.00;;;17.00;45.00;;;;;;20686;6732;309397;-75
2022/04/13 06:52:16;;;;;;;4.70;4.30;;;17.60;44.00;;;;;;20736;6730;305607;-75
2022/04/13 06:54:52;;;;;;;4.77;4.37;;;17.60;43.90;;;;;;20884;6736;122972;-74
2022/04/13 06:57:33;;;;;;;4.67;4.20;;;17.50;44.10;;;;;;20919;6732;120765;-74
2022/04/13 07:00:10;;;;;;;4.67;4.30;;;17.30;44.70;;;;;;20857;6742;117925;-74
2022/04/13 07:02:45;;;;;;;4.37;3.97;;;17.10;45.10;;;;;;20954;6712;116711;-75
2022/04/13 07:05:21;;;;;;;4.77;4.20;;;17.00;45.40;;;;;;20970;6712;118335;-74
2022/04/13 07:07:56;;;;;;;5.13;4.73;;;17.00;45.50;;;;;;20902;6727;116848;-74
2022/04/13 07:10:32;;;;;;;5.35;4.85;;;17.00;45.60;;;;;;20608;6727;337134;-74
2022/04/13 07:13:10;;;;;;;5.13;4.70;;;17.30;45.20;;;;;;20704;6727;276350;-73
2022/04/13 07:15:43;;;;;;;5.10;4.70;;;17.80;44.20;;;;;;20690;6734;305143;-74
2022/04/13 07:18:19;;;;;;;5.07;4.57;;;18.20;44.00;;;;;;20881;6740;117610;-73
2022/04/13 07:20:57;;;;;;;4.83;4.43;;;18.10;43.80;;;;;;20838;6723;117749;-80
2022/04/13 07:23:32;;;;;;;4.60;4.30;;;18.00;44.20;;;;;;20924;6722;117923;-76
2022/04/13 07:26:08;;;;;;;5.63;4.70;;;18.00;44.60;;;;;;20690;6737;306792;-74
2022/04/13 07:28:43;;;;;;;5.22;4.72;;;18.20;44.10;;;;;;20703;6727;305854;-75
2022/04/13 07:31:19;;;;;;;8.77;4.40;;;18.70;43.40;;;;;;20734;6756;117605;-74
2022/04/13 07:33:55;;;;;;;6.90;4.57;;;18.80;43.40;;;;;;21038;6690;117435;-73
2022/04/13 07:36:30;;;;;;;6.53;4.40;;;18.70;43.60;;;;;;20926;6721;117348;-74
2022/04/13 07:39:06;;;;;;;5.50;5.00;;;18.90;43.00;;;;;;20716;6725;276489;-73
2022/04/13 07:41:42;;;;;;;5.00;4.50;;;18.90;43.00;;;;;;20573;6731;307400;-73
2022/04/13 07:44:18;;;;;;;5.37;4.87;;;19.40;42.10;;;;;;20891;6735;117001;-72
2022/04/13 07:46:53;;;;;;;4.07;3.80;;;19.50;42.20;;;;;;20903;6727;117419;-72
2022/04/13 07:49:30;;;;;;;4.93;4.45;;;19.60;42.40;;;;;;20750;6712;304796;-71
2022/04/13 07:52:05;;;;;;;4.87;4.47;;;19.60;42.40;;;;;;20762;6776;117489;-71
2022/04/13 07:54:41;;;;;;;4.20;4.00;;;19.70;42.50;;;;;;20963;6706;116780;-74
2022/04/13 07:57:16;;;;;;;4.47;4.13;;;19.70;42.70;;;;;;20730;6717;304851;-71
2022/04/13 07:59:55;;;;;;;4.60;4.20;;;19.90;42.40;;;;;;20745;6710;275124;-72
2022/04/13 08:02:28;;;;;;;4.60;4.20;;;20.80;40.20;;;;;;20726;6720;276510;-72
2022/04/13 08:05:04;;;;;;;4.47;4.07;;;20.80;40.20;;;;;;20724;6722;307146;-72
2022/04/13 08:07:40;;;;;;;4.00;3.70;;;21.10;39.30;;;;;;20635;6751;281739;-72
2022/04/13 08:10:15;;;;;;;5.73;4.47;;;21.40;38.80;;;;;;20772;6731;117203;-71
2022/04/13 08:12:51;;;;;;;4.57;4.00;;;21.40;39.10;;;;;;20666;6759;305788;-71
2022/04/13 08:15:26;;;;;;;4.60;4.20;;;21.60;38.50;;;;;;20736;6726;310037;-73
2022/04/13 08:18:02;;;;;;;4.90;4.40;;;21.90;37.80;;;;;;20748;6724;304987;-73
2022/04/13 08:20:38;;;;;;;4.65;4.30;;;22.20;38.60;;;;;;20649;6726;306764;-75
2022/04/13 08:23:13;;;;;;;4.47;4.07;;;22.40;37.90;;;;;;20751;6726;283065;-75
2022/04/13 08:25:52;;;;;;;4.47;4.07;;;22.70;38.70;;;;;;20888;6724;121218;-76
2022/04/13 08:28:41;;;;;;;4.40;4.00;;;22.40;38.90;;;;;;20893;6724;118237;-76
2022/04/13 08:31:07;;;;;;;5.93;4.10;;;22.60;38.40;;;;;;20521;6794;308834;-73
2022/04/13 08:33:51;;;;;;;5.03;4.10;;;22.60;38.40;;;;;;20728;6703;304708;-74
2022/04/13 08:36:29;;;;;;;4.43;4.03;;;22.90;37.20;;;;;;20840;6729;116947;-73
2022/04/13 08:39:08;;;;;;;4.00;3.60;;;22.90;37.70;;;;;;20801;6737;119163;-74
2022/04/13 08:41:59;;;;;;;4.22;3.75;;;22.80;38.20;;;;;;20368;6759;311883;-74
2022/04/13 08:44:35;;;;;;;4.32;3.80;;;22.90;37.60;;;;;;20631;6731;338673;-73
2022/04/13 08:47:17;;;;;;;4.80;3.80;;;23.40;37.70;;;;;;20642;6733;337873;-73
2022/04/13 08:49:48;;;;;;;3.73;3.43;;;23.70;36.20;;;;;;20857;6732;116852;-73
2022/04/13 08:52:42;;;;;;;;;;;;;;;;;;;;;
2022/04/13 08:55:21;;;;;;;;;;;;;;;;;;;;;
2022/04/13 08:57:46;;;;;;;3.50;3.20;;;23.50;37.30;;;;;;20682;6713;304834;-74
2022/04/13 09:00:37;;;;;;;3.17;2.93;;;23.70;35.10;;;;;;20849;6703;118162;-74
2022/04/13 09:03:09;;;;;;;3.13;2.83;;;23.90;35.00;;;;;;20944;6712;66853;-74
2022/04/13 09:05:59;;;;;;;4.63;3.20;;;23.80;34.90;;;;;;20912;6711;116516;-76
2022/04/13 09:08:54;;;;;;;;;;;;;;;;;;;;;
2022/04/13 09:11:27;;;;;;;4.37;2.72;;;24.00;33.20;;;;;;20566;6718;309458;-72
2022/04/13 09:13:59;;;;;;;3.35;2.67;;;24.60;31.00;;;;;;20747;6706;333175;-74
2022/04/13 09:16:41;;;;;;;3.60;2.10;;;25.00;30.10;;;;;;20865;6721;120851;-75
2022/04/13 09:19:27;;;;;;;5.03;2.80;;;24.90;31.10;;;;;;20893;6730;121875;-73
2022/04/13 09:22:05;;;;;;;5.13;2.90;;;24.70;31.80;;;;;;20671;6723;117748;-76
2022/04/13 09:24:37;;;;;;;5.23;2.90;;;24.60;32.40;;;;;;20679;6715;304579;-74
2022/04/13 09:27:20;;;;;;;6.07;2.70;;;24.70;31.40;;;;;;20650;6730;276203;-72
2022/04/13 09:29:52;;;;;;;5.28;2.42;;;25.40;28.90;;;;;;20665;6715;313239;-73
2022/04/13 09:32:38;;;;;;;;;;;;;;;;;;;;;
2022/04/13 09:35:11;;;;;;;2.57;2.00;;;25.30;29.70;;;;;;20898;6713;122051;-74
2022/04/13 09:37:49;;;;;;;4.03;2.17;;;25.10;30.00;;;;;;20926;6726;120147;-71
2022/04/13 09:40:44;;;;;;;2.60;2.13;;;25.00;30.10;;;;;;20583;6749;288797;-74
2022/04/13 09:43:24;;;;;;;3.50;2.30;;;25.20;28.50;;;;;;20613;6753;277724;-74
2022/04/13 09:46:00;;;;;;;3.25;2.20;;;25.40;27.90;;;;;;20726;6714;277972;-72
2022/04/13 09:48:38;;;;;;;3.13;2.20;;;25.60;27.50;;;;;;20838;6729;117458;-73
2022/04/13 09:51:08;;;;;;;2.77;2.10;;;25.50;28.30;;;;;;20516;6721;306542;-72
2022/04/13 09:53:45;;;;;;;5.33;2.17;;;25.30;27.90;;;;;;20924;6719;118036;-72
2022/04/13 09:56:24;;;;;;;2.63;2.33;;;25.30;27.90;;;;;;20969;6708;116687;-72
2022/04/13 09:58:55;;;;;;;5.20;2.33;;;25.20;28.90;;;;;;20971;6708;122355;-72
2022/04/13 10:01:31;;;;;;;2.40;2.20;;;25.00;29.30;;;;;;20555;6730;277593;-72
2022/04/13 10:04:09;;;;;;;7.97;2.33;;;25.40;28.10;;;;;;20701;6740;310146;-78
2022/04/13 10:06:45;;;;;;;7.47;2.63;;;25.40;29.60;;;;;;20885;6783;118627;-72
2022/04/13 10:09:22;;;;;;;2.60;2.13;;;25.40;29.10;;;;;;20961;6716;117990;-72
2022/04/13 10:11:58;;;;;;;3.17;2.13;;;25.30;29.90;;;;;;20812;6713;117936;-73
2022/04/13 10:14:33;;;;;;;2.40;2.20;;;25.20;30.10;;;;;;20903;6723;127498;-73
2022/04/13 10:17:13;;;;;;;4.97;2.57;;;25.40;29.50;;;;;;20726;6723;275222;-73
2022/04/13 10:19:51;;;;;;;5.70;3.00;;;25.30;29.50;;;;;;20830;6748;117500;-73
2022/04/13 10:22:27;;;;;;;4.53;2.60;;;25.30;29.70;;;;;;20974;6716;117732;-70
2022/04/13 10:25:16;;;;;;;4.37;2.60;;;25.40;30.80;;;;;;20729;6711;305621;-74
2022/04/13 10:27:56;;;;;;;4.00;2.80;;;25.60;31.20;;;;;;20998;6700;116825;-69
2022/04/13 10:30:41;;;;;;;2.87;2.60;;;25.60;31.20;;;;;;20894;6693;119020;-69
2022/04/13 10:33:17;;;;;;;5.93;2.40;;;25.50;31.40;;;;;;20963;6700;116670;-69
2022/04/13 10:35:55;;;;;;;3.63;3.27;;;25.50;31.40;;;;;;21017;6697;116643;-70
2022/04/13 10:38:28;;;;;;;4.50;3.03;;;25.40;31.90;;;;;;20975;6698;117236;-69
2022/04/13 10:41:04;;;;;;;5.70;3.40;;;25.40;32.50;;;;;;20573;6726;282535;-70
2022/04/13 10:43:40;;;;;;;5.03;2.97;;;26.20;31.80;;;;;;20744;6713;295509;-68
2022/04/13 10:46:20;;;;;;;6.40;3.43;;;26.20;31.80;;;;;;20978;6712;118144;-70
2022/04/13 10:48:55;;;;;;;4.97;2.70;;;26.30;31.70;;;;;;20945;6714;118534;-70
2022/04/13 10:51:31;;;;;;;4.40;3.07;;;26.20;30.50;;;;;;20627;6714;306902;-70
2022/04/13 10:54:07;;;;;;;5.50;3.10;;;26.20;30.40;;;;;;20719;6714;275827;-68
2022/04/13 10:56:42;;;;;;;5.43;3.00;;;26.50;30.50;;;;;;20746;6714;279449;-69
2022/04/13 10:59:18;;;;;;;5.97;2.67;;;26.70;30.50;;;;;;20974;6714;116693;-69
2022/04/13 11:01:54;;;;;;;4.70;2.80;;;26.70;30.30;;;;;;20822;6714;116365;-68
2022/04/13 11:04:29;;;;;;;4.87;2.70;;;26.50;30.20;;;;;;20953;6714;117085;-68
2022/04/13 11:07:05;;;;;;;5.53;2.80;;;26.30;30.60;;;;;;20750;6714;280608;-68
2022/04/13 11:11:40;;;;;;;4.80;2.50;;;26.70;31.00;;;;;;21095;6516;67532;-68
2022/04/13 11:14:16;;;;;;;6.82;2.90;;;26.70;30.70;;;;;;20446;6865;338079;-71
2022/04/13 11:16:40;;;;;;;2.70;2.50;;;26.80;30.00;;;;;;20642;6858;117759;-72
2022/04/13 11:19:06;;;;;;;6.30;2.58;;;26.80;30.00;;;;;;20438;6861;312778;-69
2022/04/13 11:21:31;;;;;;;5.80;2.37;;;26.80;29.70;;;;;;20677;6861;117519;-69
2022/04/13 11:23:58;;;;;;;4.12;2.60;;;26.90;29.00;;;;;;20453;6861;279982;-69
2022/04/13 11:26:33;;;;;;;2.70;2.50;;;26.90;29.00;;;;;;20665;6858;117919;-69
2022/04/13 11:29:09;;;;;;;3.83;2.47;;;26.80;29.40;;;;;;20268;6858;282839;-67
2022/04/13 11:32:01;;;;;;;4.53;2.60;;;26.90;29.30;;;;;;20454;6858;308384;-70
2022/04/13 11:34:30;;;;;;;5.10;2.57;;;27.00;28.70;;;;;;20660;6860;118225;-69
2022/04/13 11:36:59;;;;;;;5.07;2.37;;;26.90;28.90;;;;;;20669;6860;117712;-69
2022/04/13 11:39:45;;;;;;;5.60;2.20;;;26.60;28.90;;;;;;20446;6863;280478;-69
2022/04/13 11:42:13;;;;;;;2.43;2.23;;;26.60;28.80;;;;;;20640;6866;117541;-69
2022/04/13 11:44:48;;;;;;;5.10;2.47;;;26.60;29.30;;;;;;20468;6847;279606;-69
2022/04/13 11:47:14;;;;;;;4.60;2.10;;;26.70;28.60;;;;;;20626;6865;119088;-71
2022/04/13 11:49:56;;;;;;;2.33;2.03;;;26.70;28.60;;;;;;20647;6865;123206;-73
2022/04/13 11:52:48;;;;;;;5.07;2.60;;;26.60;29.00;;;;;;20656;6865;121213;-71
2022/04/13 12:08:56;;;;;;;5.90;2.60;;;27.50;27.90;;;;;;20750;6486;306864;-68
2022/04/13 12:11:38;;;;;;;5.63;2.00;;;27.60;27.60;;;;;;20784;6793;117207;-68
2022/04/13 12:14:03;;;;;;;6.67;2.20;;;27.50;28.10;;;;;;20787;6824;117637;-68
2022/04/13 12:16:29;;;;;;;3.70;2.40;;;27.20;28.30;;;;;;20573;6824;306538;-68
2022/04/13 12:18:55;;;;;;;4.20;2.40;;;27.10;27.30;;;;;;20551;6824;336908;-70
2022/04/13 12:21:22;;;;;;;3.73;2.40;;;27.20;27.30;;;;;;20690;6824;117236;-69
2022/04/13 12:23:48;;;;;;;5.47;2.08;;;27.10;28.10;;;;;;20569;6824;307997;-67
2022/04/13 12:26:12;;;;;;;3.00;2.10;;;27.10;27.90;;;;;;20777;6824;118297;-68
2022/04/13 12:28:38;;;;;;;6.07;2.43;;;27.00;28.00;;;;;;20550;6824;278562;-68
2022/04/13 12:31:03;;;;;;;6.50;2.60;;;27.00;27.90;;;;;;20566;6824;308478;-68
2022/04/13 12:33:30;;;;;;;3.73;2.30;;;27.10;27.10;;;;;;20751;6824;114452;-68
2022/04/13 12:35:55;;;;;;;3.43;2.20;;;27.10;27.10;;;;;;20761;6824;118339;-68
2022/04/13 12:38:24;;;;;;;4.63;2.40;;;26.80;27.60;;;;;;20774;6824;119031;-67
2022/04/13 12:40:49;;;;;;;3.20;2.30;;;26.60;27.90;;;;;;20695;6833;117582;-68
2022/04/13 12:43:26;;;;;;;2.80;2.33;;;26.40;28.10;;;;;;20531;6824;337230;-69
2022/04/13 12:45:52;;;;;;;7.23;2.67;;;26.60;28.60;;;;;;20617;6815;310872;-69
2022/04/13 12:48:17;;;;;;;3.23;2.30;;;26.80;28.40;;;;;;20578;6815;310962;-70
2022/04/13 12:50:58;;;;;;;3.10;2.60;;;27.10;28.10;;;;;;20534;6833;308410;-70
2022/04/13 12:53:24;;;;;;;4.03;2.40;;;27.30;28.30;;;;;;20679;6852;118996;-71
2022/04/13 12:55:56;;;;;;;4.37;2.47;;;27.30;28.20;;;;;;20706;6842;117241;-71
2022/04/13 12:58:21;;;;;;;2.73;1.77;;;27.00;28.60;;;;;;20781;6823;117012;-73
2022/04/13 13:00:53;;;;;;;3.23;2.07;;;26.90;28.90;;;;;;20754;6823;117241;-69
2022/04/13 13:03:19;;;;;;;3.63;2.23;;;26.70;28.90;;;;;;20791;6823;117028;-69
2022/04/13 13:05:45;;;;;;;3.60;2.13;;;26.50;28.70;;;;;;20783;6823;117280;-70
2022/04/13 13:08:11;;;;;;;3.47;2.00;;;26.40;28.60;;;;;;20785;6823;117095;-72
2022/04/13 13:10:36;;;;;;;3.83;2.20;;;26.30;28.70;;;;;;20766;6823;121144;-70
2022/04/13 13:13:12;;;;;;;4.22;2.42;;;26.30;28.70;;;;;;20576;6823;278326;-71
2022/04/13 13:15:38;;;;;;;4.83;2.10;;;26.40;28.10;;;;;;20563;6823;280561;-70
2022/04/13 13:18:06;;;;;;;3.70;2.20;;;26.80;27.70;;;;;;20554;6822;339887;-72
2022/04/13 13:20:32;;;;;;;3.30;2.30;;;27.10;27.80;;;;;;20720;6823;117493;-70
2022/04/13 13:22:57;;;;;;;3.33;2.27;;;27.00;27.60;;;;;;20569;6823;307115;-71
2022/04/13 13:25:23;;;;;;;6.85;2.10;;;27.10;26.90;;;;;;20787;6823;117105;-73
2022/04/13 13:27:54;;;;;;;3.43;2.30;;;26.90;26.90;;;;;;20783;6823;118222;-76
2022/04/13 13:30:18;;;;;;;5.07;1.93;;;26.50;27.40;;;;;;20766;6823;117652;-76
2022/04/13 13:32:46;;;;;;;3.07;2.00;;;26.50;27.40;;;;;;20739;6823;146821;-78
2022/04/13 13:35:15;;;;;;;3.57;1.97;;;26.40;27.80;;;;;;20782;6823;118159;-76
2022/04/13 13:37:47;;;;;;;5.17;2.10;;;26.30;28.20;;;;;;20780;6823;117102;-78
2022/04/13 13:40:36;;;;;;;4.85;2.20;;;26.20;28.30;;;;;;20571;6823;336907;-74